createdAt,value
2022-09-01T00:00:03.907Z,13.43
2022-09-01T00:02:31.250Z,15.98
2022-09-01T00:04:58.805Z,15.00
2022-09-01T00:07:30.430Z,17.17
2022-09-01T00:09:58.899Z,15.68
2022-09-01T00:12:26.492Z,14.80
2022-09-01T00:14:53.864Z,18.42
2022-09-01T00:17:21.211Z,21.02
2022-09-01T00:19:48.243Z,17.17
2022-09-01T00:22:15.181Z,17.48
2022-09-01T00:24:44.924Z,16.73
2022-09-01T00:27:12.187Z,13.98
2022-09-01T00:29:43.996Z,15.63
2022-09-01T00:32:11.924Z,16.10
2022-09-01T00:34:39.518Z,19.48
2022-09-01T00:37:06.777Z,18.80
2022-09-01T00:39:34.354Z,17.77
2022-09-01T00:42:02.266Z,18.13
2022-09-01T00:44:29.712Z,17.83
2022-09-01T00:46:59.725Z,20.05
2022-09-01T00:49:37.323Z,16.42
2022-09-01T00:52:15.039Z,15.80
2022-09-01T00:54:45.643Z,19.02
2022-09-01T00:57:13.298Z,16.55
2022-09-01T01:00:00.660Z,18.42
2022-09-01T01:02:27.986Z,22.35
2022-09-01T01:04:56.259Z,17.95
2022-09-01T01:07:24.127Z,18.60
2022-09-01T01:09:52.095Z,21.85
2022-09-01T01:12:20.292Z,21.13
2022-09-01T01:14:52.071Z,18.98
2022-09-01T01:17:21.439Z,21.20
2022-09-01T01:20:15.654Z,19.33
2022-09-01T01:23:03.130Z,17.27
2022-09-01T01:25:34.608Z,19.90
2022-09-01T01:28:32.015Z,20.70
2022-09-01T01:31:02.596Z,19.52
2022-09-01T01:33:42.994Z,18.55
2022-09-01T01:36:33.345Z,17.30
2022-09-01T01:39:03.485Z,18.20
2022-09-01T01:41:33.042Z,20.75
2022-09-01T01:44:05.610Z,19.80
2022-09-01T01:46:34.846Z,19.20
2022-09-01T01:49:04.714Z,19.73
2022-09-01T01:51:32.990Z,20.35
2022-09-01T01:54:05.739Z,20.52
2022-09-01T01:56:36.125Z,21.67
2022-09-01T01:59:03.245Z,24.67
2022-09-01T02:01:34.129Z,25.77
2022-09-01T02:04:04.496Z,20.85
2022-09-01T02:06:34.710Z,21.30
2022-09-01T02:09:03.118Z,22.25
2022-09-01T02:11:37.879Z,22.88
2022-09-01T02:14:07.679Z,15.75
2022-09-01T02:16:36.407Z,12.23
2022-09-01T02:19:08.940Z,11.73
2022-09-01T02:21:36.269Z,10.38
2022-09-01T02:24:06.003Z,15.25
2022-09-01T02:26:39.894Z,13.25
2022-09-01T02:29:18.116Z,13.70
2022-09-01T02:31:47.299Z,14.15
2022-09-01T02:34:14.869Z,12.13
2022-09-01T02:36:47.667Z,13.25
2022-09-01T02:39:30.106Z,16.60
2022-09-01T02:41:57.440Z,22.05
2022-09-01T02:44:24.551Z,16.45
2022-09-01T02:46:51.817Z,19.85
2022-09-01T02:49:24.804Z,17.85
2022-09-01T02:51:58.257Z,20.70
2022-09-01T02:54:25.961Z,21.02
2022-09-01T02:56:54.585Z,22.52
2022-09-01T02:59:23.432Z,22.30
2022-09-01T03:01:52.423Z,19.45
2022-09-01T03:04:20.366Z,19.45
2022-09-01T03:06:48.078Z,17.48
2022-09-01T03:09:17.088Z,19.92
2022-09-01T03:11:48.636Z,20.35
2022-09-01T03:14:15.913Z,20.80
2022-09-01T03:16:43.510Z,23.00
2022-09-01T03:19:12.117Z,19.55
2022-09-01T03:21:41.679Z,27.25
2022-09-01T03:24:15.608Z,24.30
2022-09-01T03:26:44.446Z,21.75
2022-09-01T03:29:12.121Z,20.85
2022-09-01T03:31:39.428Z,19.75
2022-09-01T03:34:07.011Z,19.95
2022-09-01T03:36:34.137Z,28.67
2022-09-01T03:39:02.000Z,21.73
2022-09-01T03:41:31.318Z,18.48
2022-09-01T03:43:59.537Z,14.82
2022-09-01T03:46:35.662Z,16.45
2022-09-01T03:49:07.802Z,18.23
2022-09-01T03:51:35.209Z,16.98
2022-09-01T03:54:02.440Z,16.30
2022-09-01T03:56:29.990Z,13.43
2022-09-01T03:58:59.746Z,18.58
2022-09-01T04:01:29.803Z,17.67
2022-09-01T04:03:57.994Z,17.85
2022-09-01T04:06:25.170Z,17.75
2022-09-01T04:09:03.487Z,17.83
2022-09-01T04:11:32.533Z,18.20
2022-09-01T04:14:00.883Z,17.13
2022-09-01T04:16:50.152Z,16.15
2022-09-01T04:19:21.192Z,15.15
2022-09-01T04:21:53.765Z,18.02
2022-09-01T04:24:24.441Z,18.65
2022-09-01T04:26:53.309Z,16.85
2022-09-01T04:29:29.107Z,18.15
2022-09-01T04:32:09.799Z,16.48
2022-09-01T04:34:38.825Z,15.43
2022-09-01T04:37:23.979Z,15.15
2022-09-01T04:39:56.312Z,15.60
2022-09-01T04:42:27.323Z,19.08
2022-09-01T04:44:57.477Z,16.48
2022-09-01T04:47:35.393Z,16.38
2022-09-01T04:50:13.016Z,18.45
2022-09-01T04:52:42.270Z,20.30
2022-09-01T04:55:17.642Z,21.35
2022-09-01T04:57:49.864Z,18.38
2022-09-01T05:00:22.830Z,16.20
2022-09-01T05:02:54.191Z,18.05
2022-09-01T05:05:23.372Z,20.65
2022-09-01T05:07:53.992Z,18.38
2022-09-01T05:10:22.525Z,17.98
2022-09-01T05:12:49.903Z,16.50
2022-09-01T05:15:17.287Z,16.17
2022-09-01T05:17:44.503Z,15.18
2022-09-01T05:20:12.047Z,15.45
2022-09-01T05:22:41.166Z,14.38
2022-09-01T05:25:13.593Z,17.38
2022-09-01T05:27:49.714Z,18.02
2022-09-01T05:30:18.688Z,16.00
2022-09-01T05:32:49.186Z,17.75
2022-09-01T05:35:16.540Z,19.80
2022-09-01T05:37:43.593Z,16.85
2022-09-01T05:40:16.612Z,15.77
2022-09-01T05:42:44.706Z,16.27
2022-09-01T05:45:12.383Z,15.50
2022-09-01T05:47:41.206Z,10.07
2022-09-01T05:50:14.507Z,9.70
2022-09-01T05:52:44.820Z,10.93
2022-09-01T05:55:11.772Z,10.68
2022-09-01T05:57:40.116Z,12.73
2022-09-01T06:00:13.389Z,13.52
2022-09-01T07:27:40.462Z,22.27
2022-09-01T07:30:09.677Z,22.02
2022-09-01T07:32:47.662Z,23.67
2022-09-01T07:35:21.176Z,21.45
2022-09-01T07:38:47.265Z,21.23
2022-09-01T07:43:32.621Z,20.58
2022-09-01T07:49:29.648Z,18.25
2022-09-01T07:51:44.212Z,19.00
2022-09-01T07:54:14.102Z,18.75
2022-09-01T07:56:41.256Z,19.50
2022-09-01T07:59:14.976Z,18.65
2022-09-01T08:01:43.111Z,20.48
2022-09-01T08:04:10.005Z,16.92
2022-09-01T08:06:39.179Z,18.00
2022-09-01T08:09:11.929Z,19.20
2022-09-01T08:12:01.661Z,18.33
2022-09-01T08:14:33.694Z,18.92
2022-09-01T08:17:16.801Z,16.60
2022-09-01T08:19:44.497Z,16.58
2022-09-01T08:22:11.271Z,15.68
2022-09-01T08:24:38.129Z,15.18
2022-09-01T08:27:05.156Z,14.50
2022-09-01T08:29:32.880Z,14.48
2022-09-01T08:32:00.201Z,12.75
2022-09-01T08:34:27.433Z,15.32
2022-09-01T08:36:54.280Z,13.65
2022-09-01T08:39:21.033Z,16.08
2022-09-01T08:42:20.085Z,13.85
2022-09-01T08:45:02.682Z,12.70
2022-09-01T08:47:43.701Z,12.93
2022-09-01T08:50:22.113Z,11.70
2022-09-01T08:53:10.617Z,13.82
2022-09-01T08:55:44.208Z,10.95
2022-09-01T08:58:15.673Z,9.63
2022-09-01T09:00:54.868Z,9.65
2022-09-01T09:03:44.333Z,9.85
2022-09-01T09:06:18.016Z,10.93
2022-09-01T09:09:05.386Z,10.60
2022-09-01T09:12:04.356Z,10.18
2022-09-01T09:15:05.160Z,8.27
2022-09-01T09:17:40.544Z,9.45
2022-09-01T09:20:08.872Z,12.07
2022-09-01T09:22:36.325Z,8.90
2022-09-01T09:25:19.422Z,11.55
2022-09-01T09:27:49.576Z,8.02
2022-09-01T09:30:31.371Z,8.70
2022-09-01T09:35:54.470Z,7.25
2022-09-01T09:38:29.207Z,9.43
2022-09-01T09:41:16.630Z,7.72
2022-09-01T09:44:01.280Z,7.45
2022-09-01T09:46:43.726Z,6.35
2022-09-01T09:49:34.685Z,5.72
2022-09-01T09:52:16.512Z,5.15
2022-09-01T09:55:01.595Z,4.57
2022-09-01T09:57:30.542Z,6.18
2022-09-01T10:00:25.841Z,4.40
2022-09-01T10:03:09.989Z,3.28
2022-09-01T10:05:44.279Z,3.35
2022-09-01T10:08:16.473Z,2.30
2022-09-01T10:10:57.291Z,3.70
2022-09-01T10:13:31.484Z,4.20
2022-09-01T10:16:26.730Z,3.78
2022-09-01T10:19:00.718Z,3.45
2022-09-01T10:21:38.939Z,4.60
2022-09-01T10:24:17.754Z,3.13
2022-09-01T10:26:52.964Z,6.32
2022-09-01T10:29:35.254Z,4.43
2022-09-01T10:32:38.235Z,3.03
2022-09-01T10:35:18.407Z,2.95
2022-09-01T10:37:46.426Z,4.60
2022-09-01T10:40:30.939Z,4.72
2022-09-01T10:43:37.301Z,3.30
2022-09-01T10:46:38.515Z,5.32
2022-09-01T10:49:19.661Z,3.40
2022-09-01T10:51:56.622Z,3.10
2022-09-01T10:54:50.934Z,6.28
2022-09-01T10:57:30.613Z,4.43
2022-09-01T11:00:40.019Z,3.38
2022-09-01T11:06:17.708Z,4.65
2022-09-01T11:09:00.932Z,3.65
2022-09-01T11:11:49.435Z,3.27
2022-09-01T11:14:22.952Z,3.33
2022-09-01T11:17:14.429Z,3.43
2022-09-01T11:19:55.685Z,3.25
2022-09-01T11:22:39.538Z,4.38
2022-09-01T11:25:41.282Z,3.33
2022-09-01T11:28:35.374Z,5.18
2022-09-01T11:31:14.533Z,3.93
2022-09-01T11:33:59.052Z,4.70
2022-09-01T11:39:02.932Z,4.18
2022-09-01T11:41:57.599Z,3.25
2022-09-01T11:44:35.740Z,3.70
2022-09-01T11:47:10.750Z,4.53
2022-09-01T11:49:49.512Z,6.22
2022-09-01T11:52:18.363Z,3.45
2022-09-01T11:54:46.755Z,3.63
2022-09-01T11:57:26.838Z,4.40
2022-09-01T11:59:54.824Z,3.38
2022-09-01T12:02:28.359Z,4.20
2022-09-01T12:04:56.275Z,3.50
2022-09-01T12:07:42.548Z,3.42
2022-09-01T12:10:28.293Z,3.78
2022-09-01T12:13:11.748Z,4.25
2022-09-01T12:16:00.772Z,5.25
2022-09-01T12:18:33.017Z,4.47
2022-09-01T12:21:02.764Z,3.42
2022-09-01T12:23:40.163Z,3.47
2022-09-01T12:26:13.131Z,4.93
2022-09-01T12:28:41.534Z,3.08
2022-09-01T12:31:19.022Z,3.80
2022-09-01T12:33:47.723Z,3.63
2022-09-01T12:36:22.483Z,4.97
2022-09-01T12:38:50.325Z,3.53
2022-09-01T12:41:35.178Z,3.40
2022-09-01T12:44:44.094Z,3.60
2022-09-01T12:47:13.584Z,3.05
2022-09-01T12:49:50.231Z,3.28
2022-09-01T12:52:21.949Z,3.40
2022-09-01T12:54:52.609Z,3.13
2022-09-01T12:57:31.571Z,3.35
2022-09-01T13:00:11.181Z,3.33
2022-09-01T13:02:50.809Z,3.58
2022-09-01T13:05:51.704Z,3.05
2022-09-01T13:08:28.455Z,2.80
2022-09-01T13:11:06.713Z,4.95
2022-09-01T13:13:35.248Z,5.28
2022-09-01T13:16:12.898Z,4.47
2022-09-01T13:21:30.118Z,3.58
2022-09-01T13:23:57.148Z,4.38
2022-09-01T13:26:24.119Z,3.20
2022-09-01T13:28:51.557Z,3.72
2022-09-01T13:31:34.429Z,3.10
2022-09-01T13:34:11.025Z,2.97
2022-09-01T13:36:52.061Z,6.65
2022-09-01T13:39:20.875Z,2.92
2022-09-01T13:41:48.500Z,3.20
2022-09-01T13:44:17.197Z,3.88
2022-09-01T13:47:27.733Z,3.33
2022-09-01T13:52:19.645Z,2.97
2022-09-01T13:54:47.857Z,3.10
2022-09-01T13:57:16.511Z,3.00
2022-09-01T13:59:43.814Z,4.05
2022-09-01T14:02:11.033Z,3.78
2022-09-01T14:04:37.890Z,4.32
2022-09-01T14:07:05.006Z,3.38
2022-09-01T14:09:32.162Z,4.35
2022-09-01T14:11:59.358Z,3.13
2022-09-01T14:14:26.393Z,4.18
2022-09-01T14:16:56.368Z,5.97
2022-09-01T14:19:24.523Z,2.65
2022-09-01T14:21:51.353Z,6.55
2022-09-01T14:24:19.938Z,2.67
2022-09-01T14:26:47.616Z,3.05
2022-09-01T14:29:14.346Z,2.30
2022-09-01T14:31:42.289Z,3.83
2022-09-01T14:34:12.283Z,2.85
2022-09-01T14:36:39.407Z,3.13
2022-09-01T14:39:06.204Z,3.38
2022-09-01T14:41:34.356Z,3.28
2022-09-01T14:44:04.279Z,3.35
2022-09-01T14:46:34.395Z,3.45
2022-09-01T14:49:02.598Z,3.53
2022-09-01T14:54:18.256Z,3.90
2022-09-01T14:59:35.124Z,3.65
2022-09-01T15:02:01.992Z,4.68
2022-09-01T15:04:29.570Z,3.28
2022-09-01T15:06:56.747Z,3.15
2022-09-01T15:09:23.536Z,4.18
2022-09-01T15:11:50.416Z,4.43
2022-09-01T15:14:17.290Z,3.05
2022-09-01T15:16:44.230Z,3.08
2022-09-01T15:19:12.755Z,3.05
2022-09-01T15:21:42.630Z,3.60
2022-09-01T15:24:10.969Z,2.67
2022-09-01T15:26:40.805Z,3.33
2022-09-01T15:29:09.885Z,4.32
2022-09-01T15:31:36.791Z,4.22
2022-09-01T15:34:04.956Z,3.13
2022-09-01T15:36:34.470Z,3.33
2022-09-01T15:39:01.462Z,2.85
2022-09-01T15:41:30.828Z,3.55
2022-09-01T15:43:58.529Z,3.28
2022-09-01T15:46:32.771Z,2.88
2022-09-01T15:49:01.866Z,3.28
2022-09-01T15:51:30.962Z,2.78
2022-09-01T15:54:00.690Z,4.28
2022-09-01T15:56:27.751Z,3.13
2022-09-01T15:59:02.684Z,3.80
2022-09-01T16:01:32.792Z,4.03
2022-09-01T16:03:59.656Z,3.10
2022-09-01T16:06:26.513Z,2.88
2022-09-01T16:08:54.594Z,2.80
2022-09-01T16:11:25.916Z,4.78
2022-09-01T16:13:53.927Z,4.05
2022-09-01T16:16:40.863Z,5.00
2022-09-01T16:19:21.102Z,4.47
2022-09-01T16:22:25.392Z,3.08
2022-09-01T16:24:54.843Z,5.37
2022-09-01T16:27:32.084Z,4.82
2022-09-01T16:30:04.170Z,2.97
2022-09-01T16:32:33.076Z,3.05
2022-09-01T16:35:03.974Z,3.85
2022-09-01T16:37:43.574Z,4.45
2022-09-01T16:40:39.573Z,4.40
2022-09-01T16:43:40.795Z,4.82
2022-09-01T16:46:10.785Z,5.53
2022-09-01T16:48:49.664Z,4.63
2022-09-01T16:51:39.411Z,5.22
2022-09-01T16:54:20.856Z,3.63
2022-09-01T16:56:57.222Z,3.75
2022-09-01T16:59:29.854Z,4.80
2022-09-01T17:02:38.363Z,3.45
2022-09-01T17:05:25.378Z,4.55
2022-09-01T17:08:13.934Z,6.03
2022-09-01T17:10:46.166Z,6.05
2022-09-01T17:13:22.957Z,3.50
2022-09-01T17:16:02.681Z,4.75
2022-09-01T17:18:48.418Z,5.05
2022-09-01T17:21:20.787Z,4.32
2022-09-01T17:24:04.971Z,5.22
2022-09-01T17:26:31.953Z,4.80
2022-09-01T17:29:23.238Z,4.68
2022-09-01T17:32:30.987Z,4.78
2022-09-01T17:35:03.707Z,3.97
2022-09-01T17:37:56.895Z,3.53
2022-09-01T17:40:44.743Z,4.13
2022-09-01T17:43:18.233Z,3.13
2022-09-01T17:46:04.323Z,2.83
2022-09-01T17:48:48.401Z,3.55
2022-09-01T17:51:20.881Z,3.38
2022-09-01T17:53:53.661Z,4.15
2022-09-01T17:56:45.661Z,4.53
2022-09-01T17:59:28.731Z,3.58
2022-09-01T18:02:13.529Z,3.53
2022-09-01T18:05:14.581Z,5.90
2022-09-01T18:07:57.149Z,3.72
2022-09-01T18:10:49.388Z,5.47
2022-09-01T18:13:42.443Z,4.07
2022-09-01T18:16:19.240Z,4.07
2022-09-01T18:18:49.319Z,4.13
2022-09-01T18:21:23.749Z,4.22
2022-09-01T18:23:58.722Z,3.75
2022-09-01T18:26:33.014Z,4.23
2022-09-01T18:31:35.419Z,3.83
2022-09-01T18:34:21.499Z,4.30
2022-09-01T18:37:10.475Z,4.55
2022-09-01T18:40:14.920Z,4.65
2022-09-01T18:43:06.243Z,4.63
2022-09-01T18:45:54.132Z,5.93
2022-09-01T18:49:06.502Z,4.60
2022-09-01T18:51:33.899Z,4.43
2022-09-01T18:54:14.576Z,4.32
2022-09-01T18:57:04.970Z,4.80
2022-09-01T18:59:44.260Z,4.55
2022-09-01T19:02:35.104Z,4.78
2022-09-01T19:05:31.418Z,5.43
2022-09-01T19:08:32.482Z,5.22
2022-09-01T19:11:05.656Z,4.47
2022-09-01T19:13:53.367Z,4.35
2022-09-01T19:16:34.122Z,4.63
2022-09-01T19:19:41.414Z,5.72
2022-09-01T19:22:10.672Z,3.65
2022-09-01T19:25:21.053Z,4.22
2022-09-01T19:27:56.938Z,4.30
2022-09-01T19:30:23.780Z,3.83
2022-09-01T19:32:51.122Z,4.95
2022-09-01T19:35:18.548Z,4.00
2022-09-01T19:37:50.711Z,4.72
2022-09-01T19:40:30.495Z,6.00
2022-09-01T19:43:05.838Z,4.38
2022-09-01T19:45:52.408Z,5.38
2022-09-01T19:48:36.658Z,5.57
2022-09-01T19:51:14.435Z,4.25
2022-09-01T19:53:55.028Z,5.60
2022-09-01T19:56:29.775Z,4.70
2022-09-01T19:59:09.509Z,5.40
2022-09-01T20:01:59.103Z,4.80
2022-09-01T20:05:07.684Z,3.90
2022-09-01T20:07:50.945Z,5.90
2022-09-01T20:10:23.290Z,5.28
2022-09-01T20:13:09.585Z,4.57
2022-09-01T20:16:14.193Z,4.60
2022-09-01T20:18:51.373Z,4.77
2022-09-01T20:21:21.495Z,4.93
2022-09-01T20:23:57.574Z,7.97
2022-09-01T20:26:32.735Z,4.82
2022-09-01T20:29:08.886Z,6.97
2022-09-01T20:31:41.742Z,7.60
2022-09-01T20:34:20.148Z,5.47
2022-09-01T20:36:53.295Z,4.55
2022-09-01T20:39:52.985Z,9.32
2022-09-01T20:42:34.877Z,7.45
2022-09-01T20:45:17.026Z,4.55
2022-09-01T20:47:54.280Z,6.05
2022-09-01T20:50:26.009Z,3.95
2022-09-01T20:52:52.733Z,5.88
2022-09-01T20:55:28.389Z,6.57
2022-09-01T20:58:03.944Z,5.70
2022-09-01T21:00:33.512Z,5.38
2022-09-01T21:03:12.341Z,6.80
2022-09-01T21:05:58.533Z,4.93
2022-09-01T21:08:25.313Z,4.00
2022-09-01T21:11:02.382Z,4.05
2022-09-01T21:14:15.146Z,5.20
2022-09-01T21:16:54.835Z,5.38
2022-09-01T21:19:21.734Z,5.30
2022-09-01T21:22:07.061Z,6.75
2022-09-01T21:24:34.601Z,4.97
2022-09-01T21:27:07.614Z,8.55
2022-09-01T21:29:55.409Z,5.30
2022-09-01T21:32:23.433Z,4.35
2022-09-01T21:34:50.787Z,4.68
2022-09-01T21:37:18.735Z,5.93
2022-09-01T21:39:45.728Z,4.63
2022-09-01T21:42:13.697Z,10.50
2022-09-01T21:44:41.807Z,8.07
2022-09-01T21:47:08.774Z,6.40
2022-09-01T21:49:35.699Z,4.93
2022-09-01T21:52:04.435Z,4.80
2022-09-01T21:54:31.362Z,5.60
2022-09-01T21:56:58.182Z,8.32
2022-09-01T21:59:24.987Z,4.65
2022-09-01T22:01:52.546Z,10.40
2022-09-01T22:04:19.479Z,6.72
2022-09-01T22:06:47.158Z,5.10
2022-09-01T22:09:20.726Z,4.70
2022-09-01T22:11:49.917Z,6.68
2022-09-01T22:14:18.459Z,6.07
2022-09-01T22:16:45.469Z,5.78
2022-09-01T22:19:12.995Z,5.57
2022-09-01T22:21:41.435Z,5.57
2022-09-01T22:24:09.033Z,6.75
2022-09-01T22:26:36.254Z,4.53
2022-09-01T22:29:06.254Z,6.10
2022-09-01T22:31:35.388Z,4.72
2022-09-01T22:34:02.889Z,4.43
2022-09-01T22:36:38.844Z,5.38
2022-09-01T22:39:07.396Z,5.03
2022-09-01T22:41:34.888Z,4.80
2022-09-01T22:44:03.198Z,7.43
2022-09-01T22:46:30.875Z,4.93
2022-09-01T22:48:59.249Z,4.88
2022-09-01T22:51:26.880Z,6.65
2022-09-01T22:53:54.598Z,4.68
2022-09-01T22:56:25.556Z,5.47
2022-09-01T22:58:56.191Z,8.63
2022-09-01T23:01:25.765Z,6.28
2022-09-01T23:03:53.319Z,7.63
2022-09-01T23:06:27.953Z,4.82
2022-09-01T23:08:56.961Z,5.00
2022-09-01T23:11:24.705Z,5.00
2022-09-01T23:13:52.567Z,5.20
2022-09-01T23:16:20.673Z,5.72
2022-09-01T23:18:48.700Z,5.10
2022-09-01T23:21:18.570Z,4.28
2022-09-01T23:23:45.952Z,5.28
2022-09-01T23:26:14.480Z,5.10
2022-09-01T23:28:43.340Z,6.55
2022-09-01T23:31:14.161Z,6.03
2022-09-01T23:33:41.189Z,5.03
2022-09-01T23:36:10.184Z,8.45
2022-09-01T23:38:37.848Z,6.07
2022-09-01T23:41:08.005Z,7.93
2022-09-01T23:43:35.143Z,4.95
2022-09-01T23:46:02.025Z,5.55
2022-09-01T23:48:29.230Z,4.88
2022-09-01T23:51:01.044Z,5.70
2022-09-01T23:53:31.887Z,6.07
2022-09-01T23:56:02.294Z,4.13
2022-09-01T23:58:31.999Z,4.97
